Time;durP1;ratioP1;P1;durP2;ratioP2;P2;SDS_P1;SDS_P2;PMS_P1;PMS_P2;Temp;Humidity;BMP_temperature;BMP_pressure;BME280_temperature;BME280_humidity;BME280_pressure;Samples;Min_cycle;Max_cycle;Signal;HPM_P1;HPM_P2
2023/04/11 00:02:16;;;;;;;3.73;3.33;;;8.50;99.90;;;;;;5015937;28;20164;-80
2023/04/11 00:04:41;;;;;;;5.23;3.60;;;8.40;99.90;;;;;;5015727;28;20202;-80
2023/04/11 00:07:08;;;;;;;3.40;3.00;;;8.60;99.90;;;;;;5016311;28;20190;-80
2023/04/11 00:09:34;;;;;;;6.50;3.30;;;8.60;99.90;;;;;;5016287;28;20175;-80
2023/04/11 00:12:00;;;;;;;4.10;3.77;;;8.60;99.90;;;;;;4998505;28;20180;-79
2023/04/11 00:14:27;;;;;;;5.17;4.03;;;8.60;99.90;;;;;;4999222;28;20223;-81
2023/04/11 00:16:53;;;;;;;9.30;3.63;;;8.70;99.90;;;;;;5017073;28;20176;-81
2023/04/11 00:19:24;;;;;;;7.93;4.33;;;8.70;99.90;;;;;;5017244;28;20179;-81
2023/04/11 00:21:51;;;;;;;6.17;3.87;;;8.70;99.90;;;;;;4999568;28;20176;-82
2023/04/11 00:24:17;;;;;;;4.30;3.87;;;8.70;99.90;;;;;;5020239;28;20192;-82
2023/04/11 00:26:43;;;;;;;4.40;3.67;;;8.60;99.90;;;;;;5003126;28;20179;-81
2023/04/11 00:29:08;;;;;;;6.43;4.00;;;8.60;99.90;;;;;;5001685;28;20233;-81
2023/04/11 00:31:34;;;;;;;4.27;3.73;;;8.60;99.90;;;;;;5000949;28;20186;-81
2023/04/11 00:34:00;;;;;;;4.73;3.97;;;8.70;99.90;;;;;;5017938;28;20191;-81
2023/04/11 00:36:25;;;;;;;4.47;3.80;;;8.70;99.90;;;;;;5017861;28;20207;-81
2023/04/11 00:38:53;;;;;;;4.10;3.73;;;8.70;99.90;;;;;;5000448;28;20184;-80
2023/04/11 00:41:19;;;;;;;4.23;3.53;;;8.80;99.90;;;;;;4999565;28;20179;-81
2023/04/11 00:43:46;;;;;;;5.00;3.70;;;8.80;99.90;;;;;;5017044;28;20202;-80
2023/04/11 00:46:13;;;;;;;5.63;3.70;;;8.80;99.90;;;;;;4999387;28;20207;-80
2023/04/11 00:48:40;;;;;;;4.97;3.57;;;8.80;99.90;;;;;;5003454;28;20187;-79
2023/04/11 00:51:06;;;;;;;8.93;4.10;;;8.90;99.90;;;;;;5020880;28;20199;-79
2023/04/11 00:53:33;;;;;;;5.97;4.00;;;8.90;99.90;;;;;;5003673;28;20338;-81
2023/04/11 00:55:59;;;;;;;7.03;4.13;;;8.90;99.90;;;;;;5004076;28;20196;-81
2023/04/11 00:58:26;;;;;;;4.47;3.80;;;9.00;99.90;;;;;;5003826;28;20652;-80
2023/04/11 01:00:52;;;;;;;5.00;4.00;;;9.10;99.90;;;;;;5003336;28;20682;-79
2023/04/11 01:03:18;;;;;;;5.10;3.67;;;9.10;99.90;;;;;;5003341;28;20200;-81
2023/04/11 01:05:45;;;;;;;6.40;3.83;;;9.10;99.90;;;;;;5004674;28;20183;-81
2023/04/11 01:08:12;;;;;;;6.00;3.67;;;9.10;99.90;;;;;;5020380;28;20198;-79
2023/04/11 01:10:41;;;;;;;9.53;3.80;;;9.10;99.90;;;;;;5002539;28;20184;-79
2023/04/11 01:13:08;;;;;;;9.07;4.00;;;9.20;99.90;;;;;;5003122;28;20214;-81
2023/04/11 01:15:34;;;;;;;8.20;3.80;;;9.20;99.90;;;;;;5003074;28;20192;-79
2023/04/11 01:18:01;;;;;;;6.63;3.60;;;9.20;99.90;;;;;;5003601;28;20519;-80
2023/04/11 01:20:28;;;;;;;5.77;3.80;;;9.30;99.90;;;;;;5022200;28;20175;-85
2023/04/11 01:22:56;;;;;;;5.97;3.67;;;9.20;99.90;;;;;;5022850;28;20207;-80
2023/04/11 01:25:22;;;;;;;7.67;3.77;;;9.20;99.90;;;;;;5021404;28;20180;-79
2023/04/11 01:27:48;;;;;;;8.93;3.73;;;9.20;99.90;;;;;;5004779;28;20180;-79
2023/04/11 01:30:15;;;;;;;6.33;3.97;;;9.20;99.90;;;;;;5023558;28;20176;-85
2023/04/11 01:32:40;;;;;;;7.27;3.80;;;9.20;99.90;;;;;;5005445;28;20267;-85
2023/04/11 01:35:07;;;;;;;6.67;4.00;;;9.20;99.90;;;;;;5024003;28;20234;-85
2023/04/11 01:37:33;;;;;;;17.80;4.33;;;9.20;99.90;;;;;;5006366;28;20198;-86
2023/04/11 01:39:59;;;;;;;8.77;4.70;;;9.20;99.90;;;;;;5005676;28;20549;-85
2023/04/11 01:42:28;;;;;;;8.30;4.60;;;9.20;99.90;;;;;;5006355;28;20704;-85
2023/04/11 01:44:55;;;;;;;9.97;4.30;;;9.20;99.90;;;;;;5001948;28;20653;-84
2023/04/11 01:47:21;;;;;;;9.17;5.13;;;9.10;99.90;;;;;;5000875;28;20183;-84
2023/04/11 01:49:47;;;;;;;6.27;4.23;;;9.10;99.90;;;;;;5000700;28;20187;-83
2023/04/11 01:52:13;;;;;;;12.77;4.73;;;9.10;99.90;;;;;;5001221;28;20180;-83
2023/04/11 01:54:39;;;;;;;11.73;4.20;;;9.10;99.90;;;;;;5001586;28;20586;-83
2023/04/11 01:57:05;;;;;;;7.47;4.23;;;9.10;99.90;;;;;;5002323;28;20186;-84
2023/04/11 01:59:31;;;;;;;8.17;4.30;;;9.10;99.90;;;;;;5018826;28;20178;-84
2023/04/11 02:01:56;;;;;;;10.57;4.17;;;9.10;99.90;;;;;;5002990;28;20211;-84
2023/04/11 02:04:22;;;;;;;11.63;4.77;;;9.10;99.90;;;;;;5002859;28;20254;-84
2023/04/11 02:06:48;;;;;;;9.67;4.30;;;9.10;99.90;;;;;;5002974;28;20272;-84
2023/04/11 02:09:14;;;;;;;10.10;4.63;;;9.10;99.90;;;;;;5003049;28;20180;-86
2023/04/11 02:11:39;;;;;;;9.70;4.93;;;9.10;99.90;;;;;;5001201;28;20314;-87
2023/04/11 02:14:05;;;;;;;11.10;5.17;;;9.00;99.90;;;;;;5019096;28;20206;-86
2023/04/11 02:16:32;;;;;;;8.47;4.77;;;9.00;99.90;;;;;;5001309;28;20207;-87
2023/04/11 02:18:58;;;;;;;15.57;4.97;;;9.00;99.90;;;;;;5002743;28;20238;-86
2023/04/11 02:21:24;;;;;;;16.13;5.73;;;9.00;99.90;;;;;;5021351;28;20172;-85
2023/04/11 02:23:50;;;;;;;10.60;4.93;;;9.00;99.90;;;;;;5002653;28;20200;-85
2023/04/11 02:26:15;;;;;;;10.17;5.10;;;9.00;99.90;;;;;;5000739;28;20182;-85
2023/04/11 02:28:41;;;;;;;12.97;5.50;;;8.90;99.90;;;;;;5001207;28;20180;-84
2023/04/11 02:31:07;;;;;;;19.50;4.70;;;8.80;99.90;;;;;;5000918;28;20640;-86
2023/04/11 02:33:32;;;;;;;17.23;5.93;;;8.90;99.90;;;;;;5018076;28;20207;-84
2023/04/11 02:35:58;;;;;;;15.93;6.50;;;8.90;99.90;;;;;;5017913;28;20199;-84
2023/04/11 02:38:24;;;;;;;12.07;5.17;;;8.90;99.90;;;;;;5000707;28;20244;-84
2023/04/11 02:40:50;;;;;;;15.13;5.37;;;8.90;99.90;;;;;;5000529;28;20182;-86
2023/04/11 02:43:16;;;;;;;8.77;5.17;;;8.90;99.90;;;;;;5018796;28;20267;-84
2023/04/11 02:45:41;;;;;;;11.03;5.90;;;8.90;99.90;;;;;;5001022;28;20186;-81
2023/04/11 02:48:07;;;;;;;22.80;6.53;;;9.00;99.90;;;;;;5000917;28;20211;-80
2023/04/11 02:50:33;;;;;;;21.17;7.40;;;9.00;99.90;;;;;;5000820;28;20230;-80
2023/04/11 02:52:59;;;;;;;22.17;7.10;;;8.90;99.90;;;;;;5000890;28;20202;-81
2023/04/11 02:55:25;;;;;;;17.77;7.00;;;9.00;99.90;;;;;;5018275;28;20196;-82
2023/04/11 02:57:51;;;;;;;13.90;6.43;;;8.90;99.90;;;;;;5019360;28;20226;-81
2023/04/11 03:00:20;;;;;;;21.10;7.63;;;8.90;99.90;;;;;;5001498;28;20278;-81
2023/04/11 03:02:47;;;;;;;15.47;6.00;;;8.90;99.90;;;;;;4999796;28;20201;-81
2023/04/11 03:05:14;;;;;;;22.50;7.17;;;8.80;99.90;;;;;;5017398;28;20334;-80
2023/04/11 03:07:40;;;;;;;13.60;6.40;;;8.80;99.90;;;;;;5018074;28;20178;-80
2023/04/11 03:10:06;;;;;;;24.40;6.80;;;8.80;99.90;;;;;;4999981;28;20172;-81
2023/04/11 03:12:32;;;;;;;18.00;7.17;;;8.80;99.90;;;;;;5000227;28;20184;-82
2023/04/11 03:14:58;;;;;;;15.93;7.07;;;8.70;99.90;;;;;;5000775;28;20226;-83
2023/04/11 03:17:23;;;;;;;22.37;7.53;;;8.70;99.90;;;;;;5001702;28;20229;-82
2023/04/11 03:19:49;;;;;;;14.93;6.87;;;8.70;99.90;;;;;;5000603;28;20175;-82
2023/04/11 03:22:16;;;;;;;18.33;8.20;;;8.70;99.90;;;;;;5000832;28;20239;-81
2023/04/11 03:24:41;;;;;;;22.30;8.03;;;8.70;99.90;;;;;;5018622;28;20196;-82
2023/04/11 03:27:07;;;;;;;18.17;7.53;;;8.70;99.90;;;;;;5000867;28;20188;-81
2023/04/11 03:29:33;;;;;;;20.33;8.20;;;8.60;99.90;;;;;;4999081;28;20179;-80
2023/04/11 03:31:59;;;;;;;21.60;7.50;;;8.60;99.90;;;;;;5016639;28;20263;-79
2023/04/11 03:34:25;;;;;;;17.10;6.80;;;8.60;99.90;;;;;;4998750;28;20573;-79
2023/04/11 03:36:51;;;;;;;17.50;7.70;;;8.60;99.90;;;;;;4998527;28;20176;-79
2023/04/11 03:39:18;;;;;;;21.93;7.47;;;8.60;99.90;;;;;;4998626;28;20578;-79
2023/04/11 03:41:44;;;;;;;24.17;7.67;;;8.60;99.90;;;;;;5016208;28;20203;-79
2023/04/11 03:44:10;;;;;;;20.73;7.63;;;8.50;99.90;;;;;;5016185;28;20652;-79
2023/04/11 03:46:35;;;;;;;23.57;7.40;;;8.50;99.90;;;;;;4998804;28;20187;-79
2023/04/11 03:49:01;;;;;;;20.20;7.23;;;8.50;99.90;;;;;;4998491;28;20202;-79
2023/04/11 03:51:27;;;;;;;19.20;7.07;;;8.50;99.90;;;;;;4999057;28;20203;-79
2023/04/11 03:53:53;;;;;;;20.90;8.03;;;8.40;99.90;;;;;;5015654;28;20660;-78
2023/04/11 03:56:19;;;;;;;21.20;7.87;;;8.40;99.90;;;;;;4998367;28;20285;-81
2023/04/11 03:58:45;;;;;;;23.60;8.13;;;8.40;99.90;;;;;;4998609;28;20180;-79
2023/04/11 04:01:13;;;;;;;16.37;6.83;;;8.40;99.90;;;;;;5017192;28;20180;-81
2023/04/11 04:03:39;;;;;;;20.43;7.40;;;8.40;99.90;;;;;;5004568;28;20203;-81
2023/04/11 04:06:04;;;;;;;24.73;7.57;;;8.40;99.90;;;;;;5017510;28;20184;-80
2023/04/11 04:08:30;;;;;;;19.00;8.00;;;8.30;99.90;;;;;;4999610;28;20194;-81
2023/04/11 04:10:56;;;;;;;20.20;7.43;;;8.40;99.90;;;;;;4999796;28;20179;-82
2023/04/11 04:13:22;;;;;;;16.77;6.93;;;8.30;99.90;;;;;;5017552;28;20202;-83
2023/04/11 04:15:50;;;;;;;25.63;7.60;;;8.30;99.90;;;;;;5000259;28;20281;-82
2023/04/11 04:18:16;;;;;;;18.87;6.77;;;8.30;99.90;;;;;;5000204;28;20179;-83
2023/04/11 04:20:41;;;;;;;16.00;6.90;;;8.20;99.90;;;;;;5000945;28;20176;-83
2023/04/11 04:23:07;;;;;;;18.83;7.53;;;8.20;99.90;;;;;;5007229;28;20196;-83
2023/04/11 04:25:33;;;;;;;21.47;6.87;;;8.20;99.90;;;;;;5006528;28;20191;-82
2023/04/11 04:27:59;;;;;;;22.10;7.60;;;8.10;99.90;;;;;;5006270;28;20175;-83
2023/04/11 04:30:27;;;;;;;18.33;7.77;;;8.10;99.90;;;;;;5006771;28;20279;-82
2023/04/11 04:32:57;;;;;;;20.97;7.97;;;8.00;99.90;;;;;;5006888;28;20287;-82
2023/04/11 04:35:24;;;;;;;19.67;6.93;;;8.10;99.90;;;;;;5006825;28;20261;-82
2023/04/11 04:37:50;;;;;;;19.13;7.23;;;8.10;99.90;;;;;;5024263;28;20611;-82
2023/04/11 04:40:19;;;;;;;27.17;7.77;;;8.10;99.90;;;;;;5007469;28;20252;-82
2023/04/11 04:42:48;;;;;;;16.47;7.60;;;8.00;99.90;;;;;;5006919;28;20226;-84
2023/04/11 04:45:15;;;;;;;15.93;6.97;;;8.00;99.90;;;;;;5006874;28;20183;-82
2023/04/11 04:47:41;;;;;;;20.50;9.37;;;8.00;99.90;;;;;;5006335;28;20187;-82
2023/04/11 04:50:07;;;;;;;19.17;8.20;;;8.00;99.90;;;;;;5005927;28;20184;-79
2023/04/11 04:52:33;;;;;;;28.00;8.33;;;8.10;99.90;;;;;;5005918;28;20183;-79
2023/04/11 04:55:00;;;;;;;26.53;9.17;;;8.10;99.90;;;;;;5024173;28;20202;-80
2023/04/11 04:57:30;;;;;;;23.07;9.43;;;8.10;99.90;;;;;;5024217;28;20540;-80
2023/04/11 04:59:57;;;;;;;21.47;7.93;;;8.10;99.90;;;;;;5023073;28;20172;-81
2023/04/11 05:02:25;;;;;;;23.23;9.23;;;8.20;99.90;;;;;;5021626;28;20664;-80
2023/04/11 05:04:52;;;;;;;19.37;8.63;;;8.10;99.90;;;;;;5022435;28;20226;-80
2023/04/11 05:07:20;;;;;;;22.40;9.77;;;8.00;99.90;;;;;;5022014;28;20211;-80
2023/04/11 05:09:46;;;;;;;23.77;9.57;;;7.90;99.90;;;;;;5004528;28;20180;-80
2023/04/11 05:12:13;;;;;;;20.27;8.63;;;8.00;99.90;;;;;;5003841;28;20270;-81
2023/04/11 05:14:39;;;;;;;24.90;9.13;;;8.00;99.90;;;;;;5021564;28;20215;-80
2023/04/11 05:17:05;;;;;;;21.20;8.90;;;7.90;99.90;;;;;;5022272;28;20171;-80
2023/04/11 05:19:31;;;;;;;26.47;9.40;;;8.00;99.90;;;;;;5005040;28;20175;-82
2023/04/11 05:21:57;;;;;;;21.60;9.83;;;8.10;99.90;;;;;;5004243;28;20229;-81
2023/04/11 05:24:22;;;;;;;21.27;9.43;;;8.10;99.90;;;;;;5022705;28;20192;-81
2023/04/11 05:26:48;;;;;;;19.37;9.20;;;8.10;99.90;;;;;;5004263;28;20184;-81
2023/04/11 05:29:14;;;;;;;18.97;9.10;;;8.10;99.90;;;;;;5009381;28;20180;-82
2023/04/11 05:31:40;;;;;;;20.80;9.93;;;8.20;99.90;;;;;;5021514;28;20172;-84
2023/04/11 05:34:05;;;;;;;21.53;9.43;;;8.20;99.90;;;;;;5000255;28;20202;-85
2023/04/11 05:36:31;;;;;;;20.17;9.83;;;8.20;99.90;;;;;;5000863;28;20202;-84
2023/04/11 05:38:57;;;;;;;19.73;9.27;;;8.10;99.90;;;;;;5001119;28;20179;-85
2023/04/11 05:41:23;;;;;;;20.13;8.90;;;8.20;99.90;;;;;;5018361;28;20187;-84
2023/04/11 05:43:48;;;;;;;15.53;8.80;;;8.20;99.90;;;;;;5000487;28;20577;-83
2023/04/11 05:46:14;;;;;;;21.77;8.27;;;8.20;99.90;;;;;;5018620;28;20190;-82
2023/04/11 05:48:40;;;;;;;19.03;9.17;;;8.20;99.90;;;;;;5018479;28;20179;-81
2023/04/11 05:51:07;;;;;;;23.87;9.13;;;8.20;99.90;;;;;;4984835;28;20184;-81
2023/04/11 05:53:32;;;;;;;24.83;9.13;;;8.20;99.90;;;;;;5018461;28;20235;-82
2023/04/11 05:55:58;;;;;;;23.50;9.33;;;8.20;99.90;;;;;;5001490;28;20207;-84
2023/04/11 05:58:24;;;;;;;20.20;8.23;;;8.20;99.90;;;;;;5005507;28;20234;-83
2023/04/11 06:00:50;;;;;;;20.93;8.00;;;8.20;99.90;;;;;;5040127;28;20187;-79
2023/04/11 06:03:16;;;;;;;21.93;9.30;;;8.20;99.90;;;;;;5030677;28;20196;-82
2023/04/11 06:05:42;;;;;;;21.13;8.97;;;8.20;99.90;;;;;;5018879;28;20229;-84
2023/04/11 06:08:08;;;;;;;26.43;7.87;;;8.30;99.90;;;;;;5001226;28;20184;-83
2023/04/11 06:10:34;;;;;;;18.73;8.90;;;8.30;99.90;;;;;;5018186;28;20208;-82
2023/04/11 06:13:00;;;;;;;18.63;8.10;;;8.30;99.90;;;;;;5019919;28;20214;-82
2023/04/11 06:15:28;;;;;;;24.57;8.80;;;8.30;99.90;;;;;;5019685;28;20211;-82
2023/04/11 06:17:54;;;;;;;19.20;7.73;;;8.20;99.90;;;;;;5020538;28;20178;-80
2023/04/11 06:20:21;;;;;;;12.27;6.97;;;8.40;99.90;;;;;;5004764;28;20191;-80
2023/04/11 06:22:50;;;;;;;14.00;6.93;;;8.50;99.90;;;;;;5003890;28;20227;-81
2023/04/11 06:25:17;;;;;;;13.63;7.37;;;8.60;99.90;;;;;;5002069;28;20755;-81
2023/04/11 06:27:45;;;;;;;18.43;7.40;;;8.70;99.90;;;;;;5000992;28;20189;-81
2023/04/11 06:30:11;;;;;;;15.73;6.57;;;8.80;99.90;;;;;;5018110;28;20590;-82
2023/04/11 06:32:36;;;;;;;19.63;8.13;;;9.00;99.90;;;;;;4999859;28;20266;-81
2023/04/11 06:35:02;;;;;;;14.43;7.43;;;8.90;99.90;;;;;;5017475;28;20305;-80
2023/04/11 06:37:28;;;;;;;16.30;7.20;;;8.90;99.90;;;;;;5002535;28;20207;-81
2023/04/11 06:39:54;;;;;;;16.30;7.20;;;8.90;99.90;;;;;;5001599;28;20172;-80
2023/04/11 06:42:20;;;;;;;18.23;7.17;;;8.80;99.90;;;;;;5001457;28;20180;-79
2023/04/11 06:44:45;;;;;;;21.40;6.73;;;8.80;99.90;;;;;;5017785;28;20203;-79
2023/04/11 06:47:11;;;;;;;19.10;6.80;;;8.80;99.90;;;;;;4998442;28;20184;-78
2023/04/11 06:49:37;;;;;;;12.77;7.00;;;8.90;99.90;;;;;;5015943;28;20187;-78
2023/04/11 06:52:04;;;;;;;15.13;6.60;;;8.80;99.90;;;;;;5017305;28;20180;-78
2023/04/11 06:54:30;;;;;;;17.70;7.23;;;8.90;99.90;;;;;;5017760;28;20211;-78
2023/04/11 06:56:56;;;;;;;15.80;6.90;;;8.90;99.90;;;;;;5001532;28;20199;-79
2023/04/11 06:59:22;;;;;;;12.23;7.53;;;8.90;99.90;;;;;;5002749;28;20183;-79
2023/04/11 07:01:48;;;;;;;21.30;6.60;;;8.90;99.90;;;;;;4999961;28;20672;-78
2023/04/11 07:04:15;;;;;;;20.83;6.63;;;8.90;99.90;;;;;;4998919;28;20656;-78
2023/04/11 07:06:41;;;;;;;19.37;7.17;;;9.00;99.90;;;;;;4998665;28;20223;-79
2023/04/11 07:09:13;;;;;;;13.13;6.93;;;9.10;99.90;;;;;;5001352;28;20189;-79
2023/04/11 07:11:39;;;;;;;15.77;7.07;;;9.10;99.90;;;;;;5016969;28;20247;-79
2023/04/11 07:14:05;;;;;;;15.67;7.27;;;9.10;99.90;;;;;;4998917;28;20262;-79
2023/04/11 07:16:31;;;;;;;18.77;6.93;;;9.30;99.90;;;;;;4999370;28;20680;-80
2023/04/11 07:18:58;;;;;;;17.40;6.53;;;9.30;99.90;;;;;;4999831;28;20184;-80
2023/04/11 07:21:23;;;;;;;15.50;6.40;;;9.30;99.90;;;;;;4999216;28;20180;-78
2023/04/11 07:23:51;;;;;;;10.77;6.43;;;9.20;99.90;;;;;;4999352;28;20621;-79
2023/04/11 07:26:17;;;;;;;15.63;7.23;;;9.20;99.90;;;;;;5018245;28;20225;-79
2023/04/11 07:28:46;;;;;;;18.63;7.10;;;9.20;99.90;;;;;;5017072;28;20179;-79
2023/04/11 07:31:12;;;;;;;15.27;7.70;;;9.20;99.90;;;;;;5016551;28;20194;-79
2023/04/11 07:33:41;;;;;;;17.03;6.90;;;9.40;99.90;;;;;;4998814;28;20216;-80
2023/04/11 07:36:07;;;;;;;16.33;7.20;;;9.50;99.90;;;;;;4999930;28;20211;-79
2023/04/11 07:38:33;;;;;;;11.43;6.07;;;9.60;99.90;;;;;;5021343;28;20215;-79
2023/04/11 07:41:01;;;;;;;16.00;6.50;;;9.40;99.90;;;;;;5001098;28;20656;-79
2023/04/11 07:43:28;;;;;;;9.97;6.03;;;9.40;99.90;;;;;;5016988;28;20560;-80
2023/04/11 07:45:55;;;;;;;9.83;5.93;;;9.50;99.90;;;;;;4999203;28;20172;-82
2023/04/11 07:48:22;;;;;;;15.57;6.07;;;9.40;99.90;;;;;;4998188;28;20187;-79
2023/04/11 07:50:48;;;;;;;12.10;5.77;;;9.50;99.90;;;;;;4998647;28;20191;-79
2023/04/11 07:53:14;;;;;;;15.00;6.23;;;9.40;99.90;;;;;;4998848;28;20206;-79
2023/04/11 07:55:40;;;;;;;15.97;6.03;;;9.40;99.90;;;;;;4997793;28;20227;-79
2023/04/11 07:58:06;;;;;;;12.00;6.00;;;9.40;99.90;;;;;;4998413;28;20570;-78
2023/04/11 08:00:32;;;;;;;10.73;5.40;;;9.40;99.90;;;;;;5016261;28;20174;-78
2023/04/11 08:03:03;;;;;;;16.33;6.43;;;9.30;99.90;;;;;;4997939;28;20199;-79
2023/04/11 08:05:29;;;;;;;13.93;5.73;;;9.40;99.90;;;;;;5015860;28;20156;-79
2023/04/11 08:07:56;;;;;;;14.63;6.27;;;9.40;99.90;;;;;;5015706;28;20172;-79
2023/04/11 08:10:22;;;;;;;8.60;5.43;;;9.40;99.90;;;;;;5001974;28;20727;-78
2023/04/11 08:12:48;;;;;;;14.83;6.30;;;9.60;99.90;;;;;;5016683;28;20262;-79
2023/04/11 08:15:14;;;;;;;11.70;5.67;;;9.80;99.90;;;;;;5015002;28;20575;-78
2023/04/11 08:17:42;;;;;;;15.27;5.67;;;9.90;99.90;;;;;;5014898;28;20164;-78
2023/04/11 08:20:09;;;;;;;15.20;6.10;;;9.90;99.90;;;;;;4997077;28;20218;-79
2023/04/11 08:22:35;;;;;;;9.07;4.93;;;10.10;99.90;;;;;;4997690;28;20172;-79
2023/04/11 08:25:01;;;;;;;9.97;4.83;;;10.30;99.90;;;;;;5014493;28;20658;-78
2023/04/11 08:27:27;;;;;;;15.23;4.53;;;10.80;99.90;;;;;;4997104;28;20186;-78
2023/04/11 08:29:52;;;;;;;7.97;4.13;;;11.70;99.90;;;;;;4998069;28;20648;-78
2023/04/11 08:32:18;;;;;;;7.40;4.57;;;11.70;99.90;;;;;;5014916;28;20299;-78
2023/04/11 08:34:44;;;;;;;14.37;5.30;;;11.20;99.90;;;;;;5014508;28;20199;-78
2023/04/11 08:37:11;;;;;;;15.67;5.17;;;11.10;99.90;;;;;;5014946;28;20160;-79
2023/04/11 08:39:36;;;;;;;13.17;5.00;;;11.20;99.90;;;;;;5014898;28;20176;-78
2023/04/11 08:42:02;;;;;;;8.07;4.83;;;10.90;99.90;;;;;;5014934;28;20695;-78
2023/04/11 08:44:28;;;;;;;9.37;5.10;;;11.40;99.90;;;;;;5015045;28;20676;-79
2023/04/11 08:46:54;;;;;;;9.83;4.63;;;11.50;99.90;;;;;;5015275;28;20242;-79
2023/04/11 08:49:20;;;;;;;12.10;5.27;;;11.80;99.90;;;;;;5015180;28;20195;-79
2023/04/11 08:51:46;;;;;;;15.85;5.22;;;11.60;99.90;;;;;;4997029;28;20180;-79
2023/04/11 08:54:12;;;;;;;12.17;5.10;;;11.30;99.90;;;;;;5014791;28;20675;-79
2023/04/11 08:56:43;;;;;;;11.57;5.07;;;11.00;99.90;;;;;;5014899;28;20282;-79
2023/04/11 08:59:09;;;;;;;13.80;5.57;;;11.30;99.90;;;;;;5015095;28;20160;-78
2023/04/11 09:01:36;;;;;;;11.87;5.13;;;11.30;99.90;;;;;;5015189;28;20687;-78
2023/04/11 09:04:05;;;;;;;10.10;5.53;;;10.70;99.90;;;;;;5015015;28;20191;-79
2023/04/11 09:06:32;;;;;;;8.63;5.23;;;10.70;99.90;;;;;;5014883;28;20699;-78
2023/04/11 09:09:06;;;;;;;10.43;5.00;;;10.60;99.90;;;;;;5000458;28;20192;-78
2023/04/11 09:11:52;;;;;;;8.40;5.00;;;11.40;99.90;;;;;;5000861;28;20195;-78
2023/04/11 09:14:22;;;;;;;13.23;4.70;;;11.40;99.90;;;;;;5019346;28;20226;-79
2023/04/11 09:17:15;;;;;;;11.67;5.07;;;11.40;99.90;;;;;;5018914;28;20227;-78
2023/04/11 09:19:42;;;;;;;10.47;4.70;;;11.00;99.90;;;;;;4998618;28;20180;-78
2023/04/11 09:22:09;;;;;;;9.57;4.83;;;11.00;99.90;;;;;;5004683;28;20178;-82
2023/04/11 09:24:36;;;;;;;9.17;4.57;;;11.00;99.90;;;;;;5027405;28;20195;-82
2023/04/11 09:27:14;;;;;;;10.23;5.50;;;11.20;99.90;;;;;;5005737;28;20180;-82
2023/04/11 09:29:45;;;;;;;8.07;4.70;;;11.10;99.90;;;;;;5022332;28;20163;-82
2023/04/11 09:32:27;;;;;;;13.77;5.30;;;10.80;99.90;;;;;;5024190;28;20156;-80
2023/04/11 09:35:14;;;;;;;15.02;4.80;;;10.90;99.90;;;;;;5004307;28;20195;-83
2023/04/11 09:37:43;;;;;;;12.30;5.03;;;11.60;99.90;;;;;;5021350;28;20255;-82
2023/04/11 09:40:09;;;;;;;16.55;4.40;;;11.80;99.90;;;;;;5022926;28;20160;-82
2023/04/11 09:42:34;;;;;;;9.32;3.75;;;11.90;99.90;;;;;;5004106;28;20175;-81
2023/04/11 09:45:01;;;;;;;5.28;4.07;;;12.30;99.90;;;;;;5022339;28;20503;-82
2023/04/11 09:47:31;;;;;;;10.02;4.28;;;12.30;99.90;;;;;;5021411;28;20184;-82
2023/04/11 09:50:01;;;;;;;9.23;4.53;;;12.20;99.90;;;;;;5021084;28;20625;-82
2023/04/11 09:52:27;;;;;;;8.45;4.18;;;11.80;99.90;;;;;;5020678;28;20255;-81
2023/04/11 09:54:54;;;;;;;9.85;3.83;;;12.00;99.90;;;;;;5022575;28;20187;-82
2023/04/11 09:57:21;;;;;;;9.70;4.43;;;12.10;99.90;;;;;;5022260;28;20199;-82
2023/04/11 09:59:48;;;;;;;8.18;4.22;;;12.00;99.90;;;;;;5003285;28;20176;-82
2023/04/11 10:02:14;;;;;;;12.15;3.90;;;11.90;99.90;;;;;;5002681;28;20179;-82
2023/04/11 10:04:40;;;;;;;8.60;3.80;;;11.80;99.90;;;;;;5020743;28;20195;-82
2023/04/11 10:07:13;;;;;;;9.23;3.80;;;11.70;99.90;;;;;;5020922;28;20537;-81
2023/04/11 10:09:42;;;;;;;10.70;5.15;;;11.60;99.90;;;;;;5020722;28;20160;-82
2023/04/11 10:12:08;;;;;;;9.30;4.40;;;11.60;99.90;;;;;;5004313;28;20194;-82
2023/04/11 10:14:37;;;;;;;9.63;4.20;;;11.50;99.90;;;;;;5001000;28;20223;-81
2023/04/11 10:17:15;;;;;;;12.90;4.40;;;11.50;99.90;;;;;;5001281;28;20234;-80
2023/04/11 10:19:42;;;;;;;11.38;4.20;;;11.80;99.90;;;;;;5000513;28;20164;-81
2023/04/11 10:22:10;;;;;;;8.10;4.40;;;12.00;99.90;;;;;;5018669;28;20156;-78
2023/04/11 10:24:36;;;;;;;9.55;4.20;;;12.20;99.90;;;;;;5017669;28;20245;-78
2023/04/11 10:27:03;;;;;;;7.97;4.07;;;12.00;99.90;;;;;;5000298;28;20259;-79
2023/04/11 10:29:41;;;;;;;11.50;4.30;;;12.10;99.90;;;;;;5018863;28;20310;-78
2023/04/11 10:32:15;;;;;;;13.00;4.43;;;11.90;99.90;;;;;;5002944;28;20168;-78
2023/04/11 10:34:50;;;;;;;10.80;4.40;;;11.60;99.90;;;;;;5038793;28;20218;-79
2023/04/11 10:37:34;;;;;;;7.35;4.55;;;11.30;99.90;;;;;;5021291;28;20190;-78
2023/04/11 10:40:00;;;;;;;8.93;4.43;;;11.60;99.90;;;;;;5022779;28;20152;-78
2023/04/11 10:42:32;;;;;;;8.50;4.03;;;11.80;99.90;;;;;;5003844;28;20179;-79
2023/04/11 10:45:21;;;;;;;6.78;4.40;;;11.70;99.90;;;;;;5003019;28;20252;-78
2023/04/11 10:47:56;;;;;;;9.63;4.93;;;11.90;99.90;;;;;;5019766;28;20169;-78
2023/04/11 10:50:27;;;;;;;7.50;4.03;;;12.00;99.90;;;;;;5019863;28;20254;-82
2023/04/11 10:53:08;;;;;;;11.77;4.72;;;11.90;99.90;;;;;;5002309;28;20212;-80
2023/04/11 10:55:49;;;;;;;10.93;4.93;;;11.90;99.90;;;;;;5001872;28;20206;-79
2023/04/11 10:58:18;;;;;;;12.32;4.75;;;12.00;99.90;;;;;;4999987;28;20632;-79
2023/04/11 11:00:50;;;;;;;13.23;4.25;;;12.30;99.90;;;;;;5017746;28;20633;-79
2023/04/11 11:03:17;;;;;;;5.65;4.53;;;12.40;99.90;;;;;;5000755;28;20646;-79
2023/04/11 11:05:43;;;;;;;8.95;4.28;;;12.30;99.90;;;;;;5017537;28;20160;-79
2023/04/11 11:08:09;;;;;;;5.00;4.10;;;12.60;99.90;;;;;;4999844;28;20275;-79
2023/04/11 11:10:39;;;;;;;7.07;3.92;;;12.70;99.90;;;;;;5006397;28;20601;-80
2023/04/11 11:13:06;;;;;;;7.68;4.00;;;12.70;99.90;;;;;;5021887;28;20242;-81
2023/04/11 11:15:39;;;;;;;8.15;4.25;;;12.80;99.90;;;;;;5020855;28;20231;-83
2023/04/11 11:18:09;;;;;;;8.07;4.13;;;12.60;99.90;;;;;;5003467;28;20175;-81
2023/04/11 11:20:38;;;;;;;7.57;4.82;;;12.80;99.90;;;;;;5001085;28;20187;-82
2023/04/11 11:23:08;;;;;;;7.93;4.20;;;12.70;99.90;;;;;;5018161;28;20188;-80
2023/04/11 11:25:35;;;;;;;7.93;3.97;;;12.90;99.90;;;;;;5001586;28;20184;-82
2023/04/11 11:28:06;;;;;;;9.63;4.30;;;13.20;99.90;;;;;;5000531;28;20239;-82
2023/04/11 11:30:33;;;;;;;5.97;4.13;;;13.40;99.90;;;;;;4999796;28;20629;-83
2023/04/11 11:32:58;;;;;;;6.50;4.20;;;13.40;99.90;;;;;;4999531;28;20575;-81
2023/04/11 11:35:24;;;;;;;7.57;4.00;;;13.30;99.90;;;;;;5018070;28;20271;-81
2023/04/11 11:37:52;;;;;;;7.70;4.68;;;13.20;99.90;;;;;;4999902;28;20178;-81
2023/04/11 11:40:21;;;;;;;5.95;3.50;;;13.20;99.90;;;;;;5000886;28;20184;-82
2023/04/11 11:42:51;;;;;;;11.77;4.72;;;13.30;99.90;;;;;;5000033;28;20195;-82
2023/04/11 11:45:21;;;;;;;6.95;4.55;;;13.00;99.90;;;;;;5018999;28;20164;-82
2023/04/11 11:47:48;;;;;;;6.43;3.97;;;13.00;99.90;;;;;;5000708;28;20176;-82
2023/04/11 11:50:25;;;;;;;8.18;3.80;;;13.50;99.90;;;;;;5018647;28;20513;-83
2023/04/11 11:52:51;;;;;;;8.50;4.05;;;13.90;99.90;;;;;;4999395;28;20203;-83
2023/04/11 11:55:17;;;;;;;8.40;4.30;;;13.80;99.90;;;;;;5018029;28;20188;-84
2023/04/11 11:57:47;;;;;;;5.22;3.92;;;13.60;99.90;;;;;;5018339;28;20617;-83
2023/04/11 12:00:13;;;;;;;6.97;4.10;;;13.70;99.90;;;;;;5020599;28;20629;-83
2023/04/11 12:02:41;;;;;;;10.55;3.67;;;14.10;99.90;;;;;;5019186;28;20175;-83
2023/04/11 12:05:10;;;;;;;6.05;3.72;;;14.30;99.90;;;;;;5018870;28;20175;-84
2023/04/11 12:07:37;;;;;;;12.40;4.32;;;14.10;99.90;;;;;;5001069;28;20230;-84
2023/04/11 12:10:08;;;;;;;7.97;4.30;;;14.10;99.90;;;;;;5018526;28;20200;-84
2023/04/11 12:12:37;;;;;;;7.00;4.25;;;14.00;99.90;;;;;;5017572;28;20183;-82
2023/04/11 12:15:15;;;;;;;6.50;4.07;;;13.80;99.90;;;;;;5000231;28;20211;-82
2023/04/11 12:17:42;;;;;;;10.02;4.30;;;13.50;99.90;;;;;;5017536;28;20156;-81
2023/04/11 12:20:09;;;;;;;8.13;4.10;;;13.10;99.90;;;;;;4999731;28;20176;-83
2023/04/11 12:22:37;;;;;;;14.57;4.43;;;12.70;99.90;;;;;;5017283;28;20164;-81
2023/04/11 12:25:12;;;;;;;12.52;4.32;;;12.40;99.90;;;;;;4999121;28;20188;-81
2023/04/11 12:27:40;;;;;;;9.75;4.20;;;12.30;99.90;;;;;;5016782;28;20341;-82
2023/04/11 12:30:07;;;;;;;7.90;4.40;;;12.30;99.90;;;;;;5016583;28;20176;-81
2023/04/11 12:32:33;;;;;;;7.82;4.10;;;12.40;99.90;;;;;;5016853;28;20629;-81
2023/04/11 12:34:59;;;;;;;9.88;3.97;;;12.60;99.90;;;;;;5000205;28;20207;-82
2023/04/11 12:37:25;;;;;;;7.22;4.10;;;12.90;99.90;;;;;;5000033;28;20172;-83
2023/04/11 12:39:51;;;;;;;8.88;3.97;;;12.80;99.90;;;;;;5017830;28;20190;-83
2023/04/11 12:42:17;;;;;;;6.38;4.28;;;12.70;99.90;;;;;;4999120;28;20211;-81
2023/04/11 12:44:43;;;;;;;8.93;4.10;;;12.70;99.90;;;;;;5020096;28;20187;-81
2023/04/11 12:47:09;;;;;;;10.57;4.25;;;13.10;99.90;;;;;;5019742;28;20164;-82
2023/04/11 12:49:35;;;;;;;9.52;3.92;;;13.40;99.90;;;;;;5019475;28;20699;-81